YRO weather

Ottawa / Rockcliffe Airport
Ottawa, Ontario, Canada

Public forecast

Using degrees Celsius for public forecast. Weather courtesy of forecast.io.

METAR (pilot weather report)

Closest report is Ottawa / Gatineau Airport, 5.1 nm (9.4 km) NE. Retrieved 2019/03/26 16:00 UTC (36 minutes ago):

CYND 261600Z 27010KT 250V330 15SM SKC M03/M15 A3039 RMK SLP298

TAF (pilot weather forecast)

Closest forecast is Ottawa / Gatineau Airport, 5.1 nm (9.4 km) NE. Retrieved 2019/03/26 13:00 UTC (4 hours ago):

TAF CYND 261238Z 2613/2701 27005KT P6SM SKC BECMG 2614/2616 29010G20KT FM262300 28006KT P6SM SKC BECMG 2623/2701 VRB03KT RMK NXT FCST BY 261800Z